createdAt,value
2017-07-14T00:01:35.513Z,4.37
2017-07-14T00:04:02.172Z,3.70
2017-07-14T00:06:28.820Z,4.00
2017-07-14T00:08:55.466Z,5.00
2017-07-14T00:11:22.121Z,4.70
2017-07-14T00:13:48.757Z,4.63
2017-07-14T00:16:15.387Z,4.53
2017-07-14T00:18:42.080Z,4.50
2017-07-14T00:21:08.723Z,4.93
2017-07-14T00:23:35.359Z,4.60
2017-07-14T00:26:02.034Z,5.50
2017-07-14T00:28:28.692Z,5.87
2017-07-14T00:30:55.362Z,5.50
2017-07-14T00:33:22.032Z,4.97
2017-07-14T00:35:48.688Z,5.93
2017-07-14T00:38:15.328Z,4.47
2017-07-14T00:40:41.994Z,4.87
2017-07-14T00:43:08.655Z,4.87
2017-07-14T00:45:35.298Z,6.10
2017-07-14T00:48:01.968Z,4.90
2017-07-14T00:50:28.605Z,4.57
2017-07-14T00:52:55.254Z,4.70
2017-07-14T00:55:21.930Z,5.23
2017-07-14T00:57:48.573Z,4.80
2017-07-14T01:00:15.214Z,5.40
2017-07-14T01:02:41.885Z,5.37
2017-07-14T01:05:08.541Z,5.03
2017-07-14T01:07:35.204Z,6.27
2017-07-14T01:10:01.882Z,4.30
2017-07-14T01:12:28.529Z,4.60
2017-07-14T01:14:55.188Z,4.50
2017-07-14T01:17:21.862Z,3.90
2017-07-14T01:19:48.518Z,3.93
2017-07-14T01:22:15.179Z,4.30
2017-07-14T01:24:41.858Z,4.40
2017-07-14T01:27:08.519Z,4.33
2017-07-14T01:29:35.179Z,4.30
2017-07-14T01:32:01.854Z,4.37
2017-07-14T01:34:28.503Z,4.33
2017-07-14T01:36:55.135Z,4.40
2017-07-14T01:39:21.789Z,4.40
2017-07-14T01:41:48.427Z,4.30
2017-07-14T01:44:15.065Z,4.80
2017-07-14T01:46:41.731Z,5.37
2017-07-14T01:49:08.387Z,5.20
2017-07-14T01:51:35.034Z,5.50
2017-07-14T01:54:01.715Z,5.93
2017-07-14T01:56:28.367Z,6.33
2017-07-14T01:58:55.018Z,6.20
2017-07-14T02:01:21.697Z,6.20
2017-07-14T02:03:48.356Z,6.83
2017-07-14T02:06:15.021Z,7.60
2017-07-14T02:08:41.683Z,6.10
2017-07-14T02:11:08.342Z,6.10
2017-07-14T02:13:34.976Z,6.30
2017-07-14T02:16:01.646Z,6.27
2017-07-14T02:18:28.285Z,6.20
2017-07-14T02:20:54.929Z,6.57
2017-07-14T02:23:21.582Z,6.97
2017-07-14T02:25:48.226Z,7.43
2017-07-14T02:28:14.877Z,7.53
2017-07-14T02:30:41.570Z,8.10
2017-07-14T02:33:08.224Z,8.50
2017-07-14T02:35:34.940Z,7.10
2017-07-14T02:38:01.595Z,8.40
2017-07-14T02:40:28.227Z,7.30
2017-07-14T02:42:54.875Z,6.97
2017-07-14T02:45:21.560Z,8.03
2017-07-14T02:47:48.227Z,7.57
2017-07-14T02:50:14.885Z,8.30
2017-07-14T02:52:41.536Z,8.20
2017-07-14T02:55:08.188Z,8.77
2017-07-14T02:57:34.851Z,8.93
2017-07-14T03:00:01.524Z,7.60
2017-07-14T03:02:28.186Z,8.33
2017-07-14T03:04:54.851Z,9.93
2017-07-14T03:07:21.569Z,10.70
2017-07-14T03:09:48.227Z,11.10
2017-07-14T03:12:14.880Z,10.23
2017-07-14T03:14:41.541Z,9.60
2017-07-14T03:17:08.184Z,9.57
2017-07-14T03:19:34.849Z,10.60
2017-07-14T03:22:01.499Z,11.37
2017-07-14T03:24:28.151Z,11.77
2017-07-14T03:26:54.811Z,12.40
2017-07-14T03:29:21.478Z,13.13
2017-07-14T03:31:48.150Z,13.37
2017-07-14T03:34:14.810Z,12.33
2017-07-14T03:36:41.506Z,13.30
2017-07-14T03:39:08.155Z,13.60
2017-07-14T03:41:34.823Z,12.50
2017-07-14T03:44:01.493Z,12.90
2017-07-14T03:46:28.164Z,13.60
2017-07-14T03:48:54.817Z,15.07
2017-07-14T03:51:21.501Z,15.03
2017-07-14T03:53:48.175Z,14.80
2017-07-14T03:56:14.820Z,14.90
2017-07-14T03:58:41.492Z,15.43
2017-07-14T04:01:08.140Z,15.27
2017-07-14T04:03:34.802Z,16.83
2017-07-14T04:06:01.472Z,16.50
2017-07-14T04:08:28.136Z,18.57
2017-07-14T04:10:54.788Z,16.40
2017-07-14T04:13:21.483Z,16.60
2017-07-14T04:15:48.136Z,17.20
2017-07-14T04:18:14.782Z,16.50
2017-07-14T04:20:41.464Z,17.80
2017-07-14T04:23:08.135Z,18.20
2017-07-14T04:25:34.793Z,19.03
2017-07-14T04:28:01.464Z,18.87
2017-07-14T04:30:28.128Z,18.67
2017-07-14T04:32:54.776Z,22.47
2017-07-14T04:35:21.448Z,19.67
2017-07-14T04:37:48.110Z,20.30
2017-07-14T04:40:14.757Z,22.37
2017-07-14T04:42:41.459Z,20.00
2017-07-14T04:45:08.119Z,21.40
2017-07-14T04:47:34.763Z,22.93
2017-07-14T04:50:01.444Z,22.30
2017-07-14T04:52:28.101Z,21.77
2017-07-14T04:54:54.747Z,19.90
2017-07-14T04:57:21.440Z,21.00
2017-07-14T04:59:48.103Z,21.03
2017-07-14T05:02:14.763Z,19.47
2017-07-14T05:04:41.439Z,18.60
2017-07-14T05:07:08.089Z,18.73
2017-07-14T05:09:34.751Z,15.93
2017-07-14T05:12:01.419Z,16.97
2017-07-14T05:14:28.103Z,13.83
2017-07-14T05:16:54.756Z,16.40
2017-07-14T05:19:21.455Z,15.83
2017-07-14T05:21:48.100Z,16.73
2017-07-14T05:24:14.736Z,14.90
2017-07-14T05:26:41.412Z,15.83
2017-07-14T05:29:08.090Z,15.60
2017-07-14T05:31:34.740Z,14.33
2017-07-14T05:34:01.412Z,13.17
2017-07-14T05:36:28.078Z,14.13
2017-07-14T05:38:54.756Z,12.30
2017-07-14T05:41:21.397Z,12.10
2017-07-14T05:43:48.041Z,12.53
2017-07-14T05:46:14.716Z,11.57
2017-07-14T05:48:41.360Z,10.50
2017-07-14T05:51:08.010Z,12.13
2017-07-14T05:53:34.703Z,11.63
2017-07-14T05:56:01.362Z,12.70
2017-07-14T05:58:28.016Z,12.37
2017-07-14T06:00:54.713Z,13.47
2017-07-14T06:03:21.376Z,12.60
2017-07-14T06:05:48.039Z,12.27
2017-07-14T06:08:14.736Z,11.10
2017-07-14T06:10:41.446Z,11.20
2017-07-14T06:13:08.107Z,11.67
2017-07-14T06:15:34.776Z,11.57
2017-07-14T06:18:01.415Z,12.30
2017-07-14T06:20:28.064Z,12.70
2017-07-14T06:22:54.739Z,11.77
2017-07-14T06:25:21.385Z,11.40
2017-07-14T06:27:48.047Z,10.60
2017-07-14T06:30:14.747Z,13.10
2017-07-14T06:32:41.419Z,11.43
2017-07-14T06:35:08.089Z,10.60
2017-07-14T06:37:34.766Z,9.80
2017-07-14T06:40:01.435Z,10.03
2017-07-14T06:42:28.103Z,9.03
2017-07-14T06:44:54.795Z,9.47
2017-07-14T06:47:21.448Z,10.37
2017-07-14T06:49:48.119Z,8.60
2017-07-14T06:52:14.812Z,7.40
2017-07-14T06:54:41.504Z,8.13
2017-07-14T06:57:08.192Z,8.00
2017-07-14T06:59:34.844Z,8.63
2017-07-14T07:02:01.507Z,7.90
2017-07-14T07:04:28.168Z,8.30
2017-07-14T07:06:54.817Z,8.20
2017-07-14T07:09:21.564Z,9.27
2017-07-14T07:11:48.205Z,7.97
2017-07-14T07:14:14.860Z,7.80
2017-07-14T07:16:41.572Z,7.80
2017-07-14T07:19:08.228Z,7.27
2017-07-14T07:21:34.889Z,6.13
2017-07-14T07:24:01.595Z,6.77
2017-07-14T07:26:28.244Z,6.60
2017-07-14T07:28:54.885Z,6.57
2017-07-14T07:31:21.574Z,6.50
2017-07-14T07:33:48.281Z,7.00
2017-07-14T07:36:14.925Z,7.20
2017-07-14T07:38:41.560Z,6.37
2017-07-14T07:41:08.216Z,5.70
2017-07-14T07:43:34.882Z,6.83
2017-07-14T07:46:01.523Z,7.07
2017-07-14T07:48:34.039Z,7.83
2017-07-14T07:51:00.700Z,6.57
2017-07-14T07:53:27.357Z,6.90
2017-07-14T07:55:54.034Z,6.20
2017-07-14T07:58:20.684Z,5.73
2017-07-14T08:00:47.351Z,7.30
2017-07-14T08:03:17.709Z,6.50
2017-07-14T08:05:44.367Z,6.53
2017-07-14T08:08:11.040Z,4.90
2017-07-14T08:10:37.716Z,6.30
2017-07-14T08:13:04.366Z,5.80
2017-07-14T08:15:31.001Z,5.53
2017-07-14T08:17:57.679Z,4.90
2017-07-14T08:20:24.343Z,5.47
2017-07-14T08:22:51.012Z,4.83
2017-07-14T08:25:17.713Z,4.87
2017-07-14T08:27:44.363Z,5.40
2017-07-14T08:30:11.000Z,4.20
2017-07-14T08:32:37.661Z,4.20
2017-07-14T08:35:04.305Z,4.50
2017-07-14T08:37:30.948Z,3.80
2017-07-14T08:39:57.644Z,4.23
2017-07-14T08:42:24.280Z,5.00
2017-07-14T08:44:50.920Z,4.10
2017-07-14T08:47:17.592Z,3.80
2017-07-14T08:49:44.246Z,4.00
2017-07-14T08:52:10.894Z,3.70
2017-07-14T08:54:37.573Z,3.97
2017-07-14T08:57:04.226Z,3.73
2017-07-14T08:59:30.860Z,3.80
2017-07-14T09:01:57.515Z,3.17
2017-07-14T09:04:24.165Z,3.30
2017-07-14T09:06:50.837Z,2.77
2017-07-14T09:09:17.480Z,2.53
2017-07-14T09:11:44.121Z,2.43
2017-07-14T09:14:10.792Z,2.73
2017-07-14T09:16:37.434Z,2.63
2017-07-14T09:19:04.068Z,2.20
2017-07-14T09:21:30.747Z,2.73
2017-07-14T09:23:57.402Z,2.73
2017-07-14T09:26:24.051Z,2.43
2017-07-14T09:28:50.792Z,3.20
2017-07-14T09:31:17.444Z,2.40
2017-07-14T09:33:44.105Z,3.47
2017-07-14T09:36:10.802Z,3.80
2017-07-14T09:38:37.470Z,2.93
2017-07-14T09:41:04.127Z,3.07
2017-07-14T09:43:30.845Z,3.43
2017-07-14T09:45:57.531Z,3.00
2017-07-14T09:48:24.173Z,3.30
2017-07-14T09:50:50.817Z,4.30
2017-07-14T09:53:17.507Z,3.40
2017-07-14T09:55:44.155Z,3.30
2017-07-14T09:58:10.818Z,2.90
2017-07-14T10:00:37.485Z,2.57
2017-07-14T10:03:04.152Z,2.20
2017-07-14T10:05:30.797Z,2.47
2017-07-14T10:07:57.447Z,2.30
2017-07-14T10:10:24.089Z,2.73
2017-07-14T10:12:50.748Z,3.23
2017-07-14T10:15:17.427Z,3.57
2017-07-14T10:17:44.082Z,3.57
2017-07-14T10:20:10.732Z,3.63
2017-07-14T10:22:37.404Z,4.30
2017-07-14T10:25:04.061Z,3.90
2017-07-14T10:27:30.709Z,4.77
2017-07-14T10:29:57.381Z,5.10
2017-07-14T10:32:24.021Z,4.53
2017-07-14T10:34:50.675Z,4.87
2017-07-14T10:37:17.348Z,5.60
2017-07-14T10:39:44.013Z,3.77
2017-07-14T10:42:10.690Z,4.63
2017-07-14T10:44:37.375Z,4.33
2017-07-14T10:47:04.030Z,3.80
2017-07-14T10:49:30.668Z,4.07
2017-07-14T10:51:57.336Z,3.63
2017-07-14T10:54:23.969Z,3.43
2017-07-14T10:56:50.616Z,3.60
2017-07-14T10:59:17.273Z,3.10
2017-07-14T11:01:43.913Z,3.60
2017-07-14T11:04:10.547Z,3.50
2017-07-14T11:06:37.235Z,3.80
2017-07-14T11:09:03.895Z,3.80
2017-07-14T11:11:30.555Z,3.17
2017-07-14T11:13:57.251Z,4.20
2017-07-14T11:16:23.913Z,3.47
2017-07-14T11:18:50.574Z,3.43
2017-07-14T11:21:17.240Z,3.83
2017-07-14T11:23:43.934Z,3.10
2017-07-14T11:26:10.607Z,2.60
2017-07-14T11:28:37.256Z,4.03
2017-07-14T11:31:03.951Z,4.60
2017-07-14T11:33:30.592Z,4.20
2017-07-14T11:35:57.228Z,5.10
2017-07-14T11:38:23.899Z,5.03
2017-07-14T11:40:50.547Z,6.50
2017-07-14T11:43:17.203Z,5.40
2017-07-14T11:45:43.887Z,7.23
2017-07-14T11:48:10.519Z,7.30
2017-07-14T11:50:37.165Z,6.27
2017-07-14T11:53:03.901Z,5.97
2017-07-14T11:55:30.562Z,6.07
2017-07-14T11:57:57.201Z,5.93
2017-07-14T12:00:23.901Z,5.90
2017-07-14T12:02:50.541Z,5.63
2017-07-14T12:05:17.194Z,5.37
2017-07-14T12:07:43.843Z,5.70
2017-07-14T12:10:10.506Z,4.63
2017-07-14T12:12:37.146Z,4.60
2017-07-14T12:15:03.855Z,3.87
2017-07-14T12:17:30.497Z,3.97
2017-07-14T12:19:57.201Z,3.60
2017-07-14T12:22:23.882Z,2.97
2017-07-14T12:24:50.542Z,2.90
2017-07-14T12:27:17.199Z,2.90
2017-07-14T12:29:43.861Z,2.80
2017-07-14T12:32:10.522Z,3.00
2017-07-14T12:34:37.184Z,2.87
2017-07-14T12:37:03.872Z,3.13
2017-07-14T12:39:30.513Z,2.60
2017-07-14T12:41:57.167Z,3.30
2017-07-14T12:44:23.925Z,3.00
2017-07-14T12:46:50.618Z,2.73
2017-07-14T12:49:17.283Z,3.23
2017-07-14T12:51:43.935Z,3.40
2017-07-14T12:54:10.614Z,3.57
2017-07-14T12:56:37.253Z,4.10
2017-07-14T12:59:03.917Z,2.80
2017-07-14T13:01:30.588Z,3.20
2017-07-14T13:03:57.247Z,3.43
2017-07-14T13:06:23.963Z,3.60
2017-07-14T13:08:50.619Z,3.70
2017-07-14T13:11:17.257Z,3.30
2017-07-14T13:13:43.931Z,2.87
2017-07-14T13:16:10.592Z,2.40
2017-07-14T13:18:37.255Z,3.50
2017-07-14T13:21:03.947Z,3.27
2017-07-14T13:23:30.606Z,3.80
2017-07-14T13:25:57.240Z,3.70
2017-07-14T13:28:23.962Z,3.13
2017-07-14T13:30:50.655Z,4.20
2017-07-14T13:33:17.315Z,4.30
2017-07-14T13:35:44.000Z,4.47
2017-07-14T13:38:10.638Z,4.33
2017-07-14T13:40:37.304Z,3.93
2017-07-14T13:43:03.968Z,4.73
2017-07-14T13:45:30.629Z,3.83
2017-07-14T13:47:57.265Z,5.30
2017-07-14T13:50:23.967Z,5.17
2017-07-14T13:52:50.640Z,4.40
2017-07-14T13:55:17.291Z,3.40
2017-07-14T13:57:43.978Z,3.70
2017-07-14T14:00:10.639Z,3.50
2017-07-14T14:02:37.286Z,3.73
2017-07-14T14:05:03.969Z,3.23
2017-07-14T14:07:30.617Z,2.73
2017-07-14T14:09:57.257Z,2.93
2017-07-14T14:12:23.948Z,2.87
2017-07-14T14:14:50.598Z,3.17
2017-07-14T14:17:17.693Z,2.27
2017-07-14T14:19:44.387Z,2.10
2017-07-14T14:22:11.054Z,2.20
2017-07-14T14:24:37.733Z,1.83
2017-07-14T14:27:04.372Z,2.40
2017-07-14T14:29:31.068Z,2.13
2017-07-14T14:31:57.935Z,2.50
2017-07-14T14:34:24.852Z,2.77
2017-07-14T14:36:51.985Z,2.23
2017-07-14T14:39:18.674Z,2.30
2017-07-14T14:41:45.385Z,2.70
2017-07-14T14:44:12.677Z,2.73
2017-07-14T14:46:39.332Z,2.30
2017-07-14T14:49:06.002Z,2.70
2017-07-14T14:51:32.776Z,2.80
2017-07-14T14:53:59.434Z,2.33
2017-07-14T14:56:26.079Z,2.40
2017-07-14T14:58:52.770Z,2.27
2017-07-14T15:01:19.426Z,2.10
2017-07-14T15:03:46.083Z,2.27
2017-07-14T15:06:12.764Z,2.47
2017-07-14T15:08:39.419Z,2.43
2017-07-14T15:11:06.081Z,2.30
2017-07-14T15:13:32.751Z,2.10
2017-07-14T15:15:59.411Z,2.60
2017-07-14T15:18:26.056Z,2.40
2017-07-14T15:20:53.432Z,2.20
2017-07-14T15:23:20.104Z,2.33
2017-07-14T15:25:46.804Z,2.30
2017-07-14T15:28:13.470Z,2.37
2017-07-14T15:30:40.125Z,2.53
2017-07-14T15:33:06.789Z,2.40
2017-07-14T15:35:33.444Z,3.00
2017-07-14T15:38:00.080Z,2.30
2017-07-14T15:40:26.761Z,2.50
2017-07-14T15:42:53.438Z,2.50
2017-07-14T15:45:20.290Z,2.23
2017-07-14T15:47:46.962Z,2.60
2017-07-14T15:50:13.637Z,2.43
2017-07-14T15:52:40.289Z,2.47
2017-07-14T15:55:06.982Z,2.20
2017-07-14T15:57:33.628Z,2.27
2017-07-14T16:00:00.315Z,2.50
2017-07-14T16:02:27.864Z,2.50
2017-07-14T16:04:54.532Z,2.47
2017-07-14T16:07:21.195Z,2.50
2017-07-14T16:09:47.893Z,2.60
2017-07-14T16:12:14.558Z,2.10
2017-07-14T16:14:41.208Z,2.53
2017-07-14T16:17:07.880Z,2.53
2017-07-14T16:19:34.552Z,2.53
2017-07-14T16:22:01.187Z,2.60
2017-07-14T16:24:27.929Z,2.10
2017-07-14T16:26:54.578Z,2.90
2017-07-14T16:29:21.236Z,2.30
2017-07-14T16:31:47.974Z,2.30
2017-07-14T16:34:14.668Z,2.77
2017-07-14T16:36:41.377Z,2.00
2017-07-14T16:39:08.045Z,2.00
2017-07-14T16:41:34.706Z,2.23
2017-07-14T16:44:01.359Z,2.20
2017-07-14T16:46:28.018Z,2.67
2017-07-14T16:48:54.656Z,1.87
2017-07-14T16:51:21.316Z,1.70
2017-07-14T16:53:47.991Z,3.10
2017-07-14T16:56:14.669Z,2.10
2017-07-14T16:58:41.319Z,2.20
2017-07-14T17:01:08.008Z,1.87
2017-07-14T17:03:34.656Z,1.83
2017-07-14T17:06:01.315Z,3.17
2017-07-14T17:08:28.014Z,2.10
2017-07-14T17:10:54.912Z,2.23
2017-07-14T17:13:21.575Z,2.50
2017-07-14T17:15:48.212Z,1.87
2017-07-14T17:18:14.893Z,1.83
2017-07-14T17:20:41.552Z,2.07
2017-07-14T17:23:08.202Z,2.30
2017-07-14T17:25:34.884Z,3.03
2017-07-14T17:28:01.817Z,2.40
2017-07-14T17:30:28.487Z,2.10
2017-07-14T17:32:55.194Z,2.70
2017-07-14T17:35:21.839Z,2.67
2017-07-14T17:37:48.485Z,2.00
2017-07-14T17:40:15.273Z,2.00
2017-07-14T17:42:41.905Z,2.43
2017-07-14T17:45:08.560Z,2.20
2017-07-14T17:47:35.235Z,2.17
2017-07-14T17:50:01.884Z,4.80
2017-07-14T17:52:28.691Z,2.10
2017-07-14T17:54:55.402Z,2.10
2017-07-14T17:57:23.324Z,2.10
2017-07-14T17:59:50.030Z,5.70
2017-07-14T18:02:22.191Z,2.23
2017-07-14T18:04:48.861Z,2.03
2017-07-14T18:07:15.531Z,2.47
2017-07-14T18:09:42.380Z,1.80
2017-07-14T18:12:09.038Z,1.73
2017-07-14T18:14:35.705Z,2.50
2017-07-14T18:17:02.394Z,1.93
2017-07-14T18:19:29.049Z,1.77
2017-07-14T18:21:55.687Z,2.17
2017-07-14T18:24:22.400Z,2.60
2017-07-14T18:26:49.072Z,2.47
2017-07-14T18:29:16.038Z,2.57
2017-07-14T18:31:42.798Z,2.20
2017-07-14T18:34:09.451Z,2.17
2017-07-14T18:36:36.091Z,2.20
2017-07-14T18:39:02.813Z,2.00
2017-07-14T18:41:29.505Z,2.57
2017-07-14T18:43:56.204Z,2.33
2017-07-14T18:46:22.908Z,2.40
2017-07-14T18:48:49.589Z,4.40
2017-07-14T18:51:16.271Z,2.30
2017-07-14T18:53:42.908Z,2.10
2017-07-14T18:56:09.549Z,5.20
2017-07-14T18:58:36.243Z,2.50
2017-07-14T19:01:02.958Z,2.93
2017-07-14T19:03:29.613Z,2.67
2017-07-14T19:05:56.297Z,2.80
2017-07-14T19:08:22.965Z,2.30
2017-07-14T19:10:49.609Z,2.10
2017-07-14T19:13:16.265Z,2.13
2017-07-14T19:15:42.957Z,2.27
2017-07-14T19:18:09.595Z,1.80
2017-07-14T19:20:36.251Z,3.47
2017-07-14T19:23:02.935Z,2.03
2017-07-14T19:25:29.613Z,2.43
2017-07-14T19:27:56.766Z,2.80
2017-07-14T19:30:23.452Z,2.53
2017-07-14T19:32:50.126Z,2.10
2017-07-14T19:35:16.771Z,2.90
2017-07-14T19:37:43.430Z,3.20
2017-07-14T19:40:10.111Z,3.10
2017-07-14T19:42:36.751Z,2.30
2017-07-14T19:45:03.405Z,5.57
2017-07-14T19:47:30.081Z,3.67
2017-07-14T19:49:56.753Z,2.30
2017-07-14T19:52:23.400Z,4.03
2017-07-14T19:54:50.082Z,2.43
2017-07-14T19:57:16.727Z,2.00
2017-07-14T19:59:43.388Z,6.27
2017-07-14T20:02:10.054Z,2.80
2017-07-14T20:04:36.697Z,2.33
2017-07-14T20:07:03.378Z,3.37
2017-07-14T20:09:30.079Z,4.27
2017-07-14T20:11:56.739Z,3.00
2017-07-14T20:14:23.399Z,2.27
2017-07-14T20:16:50.067Z,5.90
2017-07-14T20:19:16.709Z,2.27
2017-07-14T20:21:43.344Z,2.13
2017-07-14T20:24:10.030Z,2.77
2017-07-14T20:26:36.668Z,3.03
2017-07-14T20:29:03.319Z,2.70
2017-07-14T20:31:29.987Z,2.27
2017-07-14T20:33:56.629Z,5.10
2017-07-14T20:36:23.283Z,2.87
2017-07-14T20:38:49.967Z,3.43
2017-07-14T20:41:16.637Z,2.47
2017-07-14T20:43:43.292Z,3.80
2017-07-14T20:46:09.979Z,2.57
2017-07-14T20:48:36.616Z,2.57
2017-07-14T20:51:03.262Z,2.40
2017-07-14T20:53:29.955Z,3.60
2017-07-14T20:55:56.924Z,5.60
2017-07-14T20:58:23.605Z,8.60
2017-07-14T21:00:50.289Z,4.00
2017-07-14T21:03:17.057Z,2.80
2017-07-14T21:05:43.717Z,3.63
2017-07-14T21:08:10.360Z,2.67
2017-07-14T21:10:37.044Z,3.73
2017-07-14T21:13:03.726Z,2.50
2017-07-14T21:15:30.361Z,4.00
2017-07-14T21:17:56.998Z,4.63
2017-07-14T21:20:23.690Z,3.78
2017-07-14T21:22:50.370Z,2.20
2017-07-14T21:25:17.008Z,2.20
2017-07-14T21:27:43.706Z,2.43
2017-07-14T21:30:10.383Z,3.20
2017-07-14T21:32:37.027Z,2.40
2017-07-14T21:35:03.655Z,2.10
2017-07-14T21:37:30.325Z,2.47
2017-07-14T21:39:56.993Z,2.58
2017-07-14T21:42:24.090Z,2.50
2017-07-14T21:44:50.756Z,3.10
2017-07-14T21:47:17.410Z,2.50
2017-07-14T21:49:44.065Z,2.70
2017-07-14T21:52:10.735Z,2.57
2017-07-14T21:54:37.375Z,1.87
2017-07-14T21:57:04.043Z,2.60
2017-07-14T21:59:30.684Z,2.60
2017-07-14T22:01:57.359Z,2.20
2017-07-14T22:04:24.051Z,2.37
2017-07-14T22:06:50.722Z,4.00
2017-07-14T22:09:17.383Z,2.10
2017-07-14T22:11:44.060Z,3.00
2017-07-14T22:14:10.833Z,1.97
2017-07-14T22:16:37.524Z,2.77
2017-07-14T22:19:04.184Z,2.30
2017-07-14T22:21:31.009Z,2.20
2017-07-14T22:23:57.677Z,2.10
2017-07-14T22:26:24.373Z,2.30
2017-07-14T22:28:51.119Z,2.65
2017-07-14T22:31:17.819Z,2.40
2017-07-14T22:33:44.502Z,2.87
2017-07-14T22:36:11.287Z,3.03
2017-07-14T22:38:38.120Z,2.20
2017-07-14T22:41:04.815Z,2.63
2017-07-14T22:43:31.529Z,2.53
2017-07-14T22:45:58.254Z,2.33
2017-07-14T22:48:25.063Z,2.47
2017-07-14T22:50:51.761Z,2.80
2017-07-14T22:53:18.495Z,2.60
2017-07-14T22:55:45.146Z,2.73
2017-07-14T22:58:11.798Z,2.53
2017-07-14T23:00:38.508Z,3.10
2017-07-14T23:03:05.160Z,3.60
2017-07-14T23:05:31.817Z,2.60
2017-07-14T23:07:58.507Z,2.50
2017-07-14T23:10:25.159Z,2.80
2017-07-14T23:12:51.832Z,3.20
2017-07-14T23:15:18.520Z,2.33
2017-07-14T23:17:45.203Z,2.47
2017-07-14T23:20:11.858Z,2.77
2017-07-14T23:22:38.508Z,2.50
2017-07-14T23:25:05.166Z,3.00
2017-07-14T23:27:31.827Z,2.60
2017-07-14T23:29:58.504Z,2.87
2017-07-14T23:32:25.183Z,3.00
2017-07-14T23:34:51.831Z,2.40
2017-07-14T23:37:18.492Z,2.83
2017-07-14T23:39:45.172Z,3.10
2017-07-14T23:42:11.842Z,2.67
2017-07-14T23:44:38.524Z,2.87
2017-07-14T23:47:05.188Z,2.87
2017-07-14T23:49:31.859Z,3.10
2017-07-14T23:51:58.509Z,3.00
2017-07-14T23:54:25.157Z,2.87
2017-07-14T23:56:51.828Z,2.60
2017-07-14T23:59:18.475Z,3.80
